sensor_id;sensor_type;location;lat;lon;timestamp;temperature;humidity
9410;DHT22;4744;52.576;13.568;2022-07-23T00:00:10;16.70;1.00
9410;DHT22;4744;52.576;13.568;2022-07-23T00:02:37;16.80;1.00
9410;DHT22;4744;52.576;13.568;2022-07-23T00:05:05;16.80;1.00
9410;DHT22;4744;52.576;13.568;2022-07-23T00:07:32;16.90;1.00
9410;DHT22;4744;52.576;13.568;2022-07-23T00:10:00;16.90;1.00
9410;DHT22;4744;52.576;13.568;2022-07-23T00:12:27;17.00;1.00
9410;DHT22;4744;52.576;13.568;2022-07-23T00:14:54;17.00;1.00
9410;DHT22;4744;52.576;13.568;2022-07-23T00:17:20;17.00;1.00
9410;DHT22;4744;52.576;13.568;2022-07-23T00:19:47;17.00;1.00
9410;DHT22;4744;52.576;13.568;2022-07-23T00:22:14;17.00;1.00
9410;DHT22;4744;52.576;13.568;2022-07-23T00:24:41;17.00;1.00
9410;DHT22;4744;52.576;13.568;2022-07-23T00:27:09;17.00;1.00
9410;DHT22;4744;52.576;13.568;2022-07-23T00:29:36;16.90;1.00
9410;DHT22;4744;52.576;13.568;2022-07-23T00:32:03;16.90;1.00
9410;DHT22;4744;52.576;13.568;2022-07-23T00:34:30;16.80;1.00
9410;DHT22;4744;52.576;13.568;2022-07-23T00:36:57;16.70;1.00
9410;DHT22;4744;52.576;13.568;2022-07-23T00:39:23;16.70;1.00
9410;DHT22;4744;52.576;13.568;2022-07-23T00:41:51;16.70;1.00
9410;DHT22;4744;52.576;13.568;2022-07-23T00:44:21;16.80;1.00
9410;DHT22;4744;52.576;13.568;2022-07-23T00:46:49;16.80;1.00
9410;DHT22;4744;52.576;13.568;2022-07-23T00:49:18;16.80;1.00
9410;DHT22;4744;52.576;13.568;2022-07-23T00:51:45;16.80;1.00
9410;DHT22;4744;52.576;13.568;2022-07-23T00:54:12;16.80;1.00
9410;DHT22;4744;52.576;13.568;2022-07-23T00:56:40;16.70;1.00
9410;DHT22;4744;52.576;13.568;2022-07-23T00:59:07;16.70;1.00
9410;DHT22;4744;52.576;13.568;2022-07-23T01:01:36;16.70;1.00
9410;DHT22;4744;52.576;13.568;2022-07-23T01:04:04;16.70;1.00
9410;DHT22;4744;52.576;13.568;2022-07-23T01:06:34;16.70;1.00
9410;DHT22;4744;52.576;13.568;2022-07-23T01:09:03;16.60;1.00
9410;DHT22;4744;52.576;13.568;2022-07-23T01:11:30;16.60;1.00
9410;DHT22;4744;52.576;13.568;2022-07-23T01:13:57;16.60;1.00
9410;DHT22;4744;52.576;13.568;2022-07-23T01:16:24;16.60;1.00
9410;DHT22;4744;52.576;13.568;2022-07-23T01:18:52;16.60;1.00
9410;DHT22;4744;52.576;13.568;2022-07-23T01:21:19;16.60;1.00
9410;DHT22;4744;52.576;13.568;2022-07-23T01:23:48;16.60;1.00
9410;DHT22;4744;52.576;13.568;2022-07-23T01:26:15;16.50;1.00
9410;DHT22;4744;52.576;13.568;2022-07-23T01:28:43;16.50;1.00
9410;DHT22;4744;52.576;13.568;2022-07-23T01:31:10;16.50;1.00
9410;DHT22;4744;52.576;13.568;2022-07-23T01:33:37;16.50;1.00
9410;DHT22;4744;52.576;13.568;2022-07-23T01:36:04;16.40;1.00
9410;DHT22;4744;52.576;13.568;2022-07-23T01:38:30;16.50;1.00
9410;DHT22;4744;52.576;13.568;2022-07-23T01:40:59;16.40;1.00
9410;DHT22;4744;52.576;13.568;2022-07-23T01:43:25;16.40;1.00
9410;DHT22;4744;52.576;13.568;2022-07-23T01:45:52;16.30;1.00
9410;DHT22;4744;52.576;13.568;2022-07-23T01:48:19;16.30;1.00
9410;DHT22;4744;52.576;13.568;2022-07-23T01:50:46;16.20;1.00
9410;DHT22;4744;52.576;13.568;2022-07-23T01:53:13;16.20;1.00
9410;DHT22;4744;52.576;13.568;2022-07-23T01:55:40;16.20;1.00
9410;DHT22;4744;52.576;13.568;2022-07-23T01:58:08;16.20;1.00
9410;DHT22;4744;52.576;13.568;2022-07-23T02:00:35;16.20;1.00
9410;DHT22;4744;52.576;13.568;2022-07-23T02:03:02;16.20;1.00
9410;DHT22;4744;52.576;13.568;2022-07-23T02:05:29;16.20;1.00
9410;DHT22;4744;52.576;13.568;2022-07-23T02:07:57;16.20;1.00
9410;DHT22;4744;52.576;13.568;2022-07-23T02:10:24;16.20;1.00
9410;DHT22;4744;52.576;13.568;2022-07-23T02:12:51;16.20;1.00
9410;DHT22;4744;52.576;13.568;2022-07-23T02:15:19;16.20;1.00
9410;DHT22;4744;52.576;13.568;2022-07-23T02:17:46;16.20;1.00
9410;DHT22;4744;52.576;13.568;2022-07-23T02:20:13;16.10;1.00
9410;DHT22;4744;52.576;13.568;2022-07-23T02:22:40;16.10;1.00
9410;DHT22;4744;52.576;13.568;2022-07-23T02:25:08;16.00;1.00
9410;DHT22;4744;52.576;13.568;2022-07-23T02:27:35;16.00;1.00
9410;DHT22;4744;52.576;13.568;2022-07-23T02:30:03;16.00;1.00
9410;DHT22;4744;52.576;13.568;2022-07-23T02:32:31;16.00;1.00
9410;DHT22;4744;52.576;13.568;2022-07-23T02:34:58;16.00;1.00
9410;DHT22;4744;52.576;13.568;2022-07-23T02:37:25;16.00;1.00
9410;DHT22;4744;52.576;13.568;2022-07-23T02:39:52;16.00;1.00
9410;DHT22;4744;52.576;13.568;2022-07-23T02:42:19;16.00;1.00
9410;DHT22;4744;52.576;13.568;2022-07-23T02:44:45;16.00;1.00
9410;DHT22;4744;52.576;13.568;2022-07-23T02:47:12;16.00;1.00
9410;DHT22;4744;52.576;13.568;2022-07-23T02:49:40;16.00;1.00
9410;DHT22;4744;52.576;13.568;2022-07-23T02:52:07;16.00;1.00
9410;DHT22;4744;52.576;13.568;2022-07-23T02:54:35;16.00;1.00
9410;DHT22;4744;52.576;13.568;2022-07-23T02:57:03;16.10;1.00
9410;DHT22;4744;52.576;13.568;2022-07-23T02:59:29;16.00;1.00
9410;DHT22;4744;52.576;13.568;2022-07-23T03:01:56;16.00;1.00
9410;DHT22;4744;52.576;13.568;2022-07-23T03:04:23;16.00;1.00
9410;DHT22;4744;52.576;13.568;2022-07-23T03:06:51;15.90;1.00
9410;DHT22;4744;52.576;13.568;2022-07-23T03:09:18;16.00;1.00
9410;DHT22;4744;52.576;13.568;2022-07-23T03:11:45;16.00;1.00
9410;DHT22;4744;52.576;13.568;2022-07-23T03:14:12;15.90;1.00
9410;DHT22;4744;52.576;13.568;2022-07-23T03:16:39;15.90;1.00
9410;DHT22;4744;52.576;13.568;2022-07-23T03:19:06;15.90;1.00
9410;DHT22;4744;52.576;13.568;2022-07-23T03:21:33;15.90;1.00
9410;DHT22;4744;52.576;13.568;2022-07-23T03:24:03;15.90;1.00
9410;DHT22;4744;52.576;13.568;2022-07-23T03:26:30;15.90;1.00
9410;DHT22;4744;52.576;13.568;2022-07-23T03:28:57;15.80;1.00
9410;DHT22;4744;52.576;13.568;2022-07-23T03:31:23;15.80;1.00
9410;DHT22;4744;52.576;13.568;2022-07-23T03:33:50;15.80;1.00
9410;DHT22;4744;52.576;13.568;2022-07-23T03:36:17;15.80;1.00
9410;DHT22;4744;52.576;13.568;2022-07-23T03:38:44;15.80;1.00
9410;DHT22;4744;52.576;13.568;2022-07-23T03:41:12;15.80;1.00
9410;DHT22;4744;52.576;13.568;2022-07-23T03:43:38;15.80;1.00
9410;DHT22;4744;52.576;13.568;2022-07-23T03:46:05;15.80;1.00
9410;DHT22;4744;52.576;13.568;2022-07-23T03:48:32;15.80;1.00
9410;DHT22;4744;52.576;13.568;2022-07-23T03:50:59;15.80;1.00
9410;DHT22;4744;52.576;13.568;2022-07-23T03:53:26;15.80;1.00
9410;DHT22;4744;52.576;13.568;2022-07-23T03:55:53;15.80;1.00
9410;DHT22;4744;52.576;13.568;2022-07-23T03:58:21;15.90;1.00
9410;DHT22;4744;52.576;13.568;2022-07-23T04:00:48;15.80;1.00
9410;DHT22;4744;52.576;13.568;2022-07-23T04:03:14;15.80;1.00
9410;DHT22;4744;52.576;13.568;2022-07-23T04:05:41;15.80;1.00
9410;DHT22;4744;52.576;13.568;2022-07-23T04:08:08;15.70;1.00
9410;DHT22;4744;52.576;13.568;2022-07-23T04:10:35;15.80;1.00
9410;DHT22;4744;52.576;13.568;2022-07-23T04:13:01;15.70;1.00
9410;DHT22;4744;52.576;13.568;2022-07-23T04:15:30;15.80;1.00
9410;DHT22;4744;52.576;13.568;2022-07-23T04:17:56;15.80;1.00
9410;DHT22;4744;52.576;13.568;2022-07-23T04:20:23;15.70;1.00
9410;DHT22;4744;52.576;13.568;2022-07-23T04:22:50;15.70;1.00
9410;DHT22;4744;52.576;13.568;2022-07-23T04:25:17;15.80;1.00
9410;DHT22;4744;52.576;13.568;2022-07-23T04:27:43;15.80;1.00
9410;DHT22;4744;52.576;13.568;2022-07-23T04:30:10;15.80;1.00
9410;DHT22;4744;52.576;13.568;2022-07-23T04:32:39;15.80;1.00
9410;DHT22;4744;52.576;13.568;2022-07-23T04:35:06;15.80;1.00
9410;DHT22;4744;52.576;13.568;2022-07-23T04:37:33;15.90;1.00
9410;DHT22;4744;52.576;13.568;2022-07-23T04:39:59;15.90;1.00
9410;DHT22;4744;52.576;13.568;2022-07-23T04:42:26;15.90;1.00
9410;DHT22;4744;52.576;13.568;2022-07-23T04:44:53;15.90;1.00
9410;DHT22;4744;52.576;13.568;2022-07-23T04:47:20;16.00;1.00
9410;DHT22;4744;52.576;13.568;2022-07-23T04:49:48;16.00;1.00
9410;DHT22;4744;52.576;13.568;2022-07-23T04:52:15;16.10;1.00
9410;DHT22;4744;52.576;13.568;2022-07-23T04:54:42;16.10;1.00
9410;DHT22;4744;52.576;13.568;2022-07-23T04:57:08;16.10;1.00
9410;DHT22;4744;52.576;13.568;2022-07-23T04:59:35;16.10;1.00
9410;DHT22;4744;52.576;13.568;2022-07-23T05:02:02;16.10;1.00
9410;DHT22;4744;52.576;13.568;2022-07-23T05:04:29;16.10;1.00
9410;DHT22;4744;52.576;13.568;2022-07-23T05:06:58;16.10;1.00
9410;DHT22;4744;52.576;13.568;2022-07-23T05:09:25;16.10;1.00
9410;DHT22;4744;52.576;13.568;2022-07-23T05:11:52;16.00;1.00
9410;DHT22;4744;52.576;13.568;2022-07-23T05:14:18;15.90;1.00
9410;DHT22;4744;52.576;13.568;2022-07-23T05:16:45;15.90;1.00
9410;DHT22;4744;52.576;13.568;2022-07-23T05:19:12;15.80;1.00
9410;DHT22;4744;52.576;13.568;2022-07-23T05:21:39;15.80;1.00
9410;DHT22;4744;52.576;13.568;2022-07-23T05:24:07;15.70;1.00
9410;DHT22;4744;52.576;13.568;2022-07-23T05:26:34;15.70;1.00
9410;DHT22;4744;52.576;13.568;2022-07-23T05:29:01;15.80;1.00
9410;DHT22;4744;52.576;13.568;2022-07-23T05:31:28;15.80;1.00
9410;DHT22;4744;52.576;13.568;2022-07-23T05:33:55;15.70;1.00
9410;DHT22;4744;52.576;13.568;2022-07-23T05:36:21;15.70;1.00
9410;DHT22;4744;52.576;13.568;2022-07-23T05:38:48;15.70;1.00
9410;DHT22;4744;52.576;13.568;2022-07-23T05:41:16;15.60;1.00
9410;DHT22;4744;52.576;13.568;2022-07-23T05:43:43;15.60;1.00
9410;DHT22;4744;52.576;13.568;2022-07-23T05:46:10;15.60;1.00
9410;DHT22;4744;52.576;13.568;2022-07-23T05:48:37;15.60;1.00
9410;DHT22;4744;52.576;13.568;2022-07-23T05:51:04;15.60;1.00
9410;DHT22;4744;52.576;13.568;2022-07-23T05:53:32;15.50;1.00
9410;DHT22;4744;52.576;13.568;2022-07-23T05:55:59;15.50;1.00
9410;DHT22;4744;52.576;13.568;2022-07-23T05:58:27;15.50;1.00
9410;DHT22;4744;52.576;13.568;2022-07-23T06:00:54;15.50;1.00
9410;DHT22;4744;52.576;13.568;2022-07-23T06:03:21;15.50;1.00
9410;DHT22;4744;52.576;13.568;2022-07-23T06:05:48;15.50;1.00
9410;DHT22;4744;52.576;13.568;2022-07-23T06:08:14;15.50;1.00
9410;DHT22;4744;52.576;13.568;2022-07-23T06:10:41;15.50;1.00
9410;DHT22;4744;52.576;13.568;2022-07-23T06:13:08;15.50;1.00
9410;DHT22;4744;52.576;13.568;2022-07-23T06:15:36;15.50;1.00
9410;DHT22;4744;52.576;13.568;2022-07-23T06:18:03;15.50;1.00
9410;DHT22;4744;52.576;13.568;2022-07-23T06:20:30;15.50;1.00
9410;DHT22;4744;52.576;13.568;2022-07-23T06:22:57;15.50;1.00
9410;DHT22;4744;52.576;13.568;2022-07-23T06:25:24;15.50;1.00
9410;DHT22;4744;52.576;13.568;2022-07-23T06:27:51;15.40;1.00
9410;DHT22;4744;52.576;13.568;2022-07-23T06:30:18;15.40;1.00
9410;DHT22;4744;52.576;13.568;2022-07-23T06:32:46;15.50;1.00
9410;DHT22;4744;52.576;13.568;2022-07-23T06:35:14;15.50;1.00
9410;DHT22;4744;52.576;13.568;2022-07-23T06:37:40;15.50;1.00
9410;DHT22;4744;52.576;13.568;2022-07-23T06:40:08;15.40;1.00
9410;DHT22;4744;52.576;13.568;2022-07-23T06:42:35;15.40;1.00
9410;DHT22;4744;52.576;13.568;2022-07-23T06:45:05;15.40;1.00
9410;DHT22;4744;52.576;13.568;2022-07-23T06:47:32;15.40;1.00
9410;DHT22;4744;52.576;13.568;2022-07-23T06:50:01;15.40;1.00
9410;DHT22;4744;52.576;13.568;2022-07-23T06:52:27;15.40;1.00
9410;DHT22;4744;52.576;13.568;2022-07-23T06:54:54;15.40;1.00
9410;DHT22;4744;52.576;13.568;2022-07-23T06:57:21;15.40;1.00
9410;DHT22;4744;52.576;13.568;2022-07-23T06:59:49;15.40;1.00
9410;DHT22;4744;52.576;13.568;2022-07-23T07:02:15;15.40;1.00
9410;DHT22;4744;52.576;13.568;2022-07-23T07:04:42;15.40;1.00
9410;DHT22;4744;52.576;13.568;2022-07-23T07:07:10;15.40;1.00
9410;DHT22;4744;52.576;13.568;2022-07-23T07:09:38;15.40;1.00
9410;DHT22;4744;52.576;13.568;2022-07-23T07:12:05;15.40;1.00
9410;DHT22;4744;52.576;13.568;2022-07-23T07:14:32;15.40;1.00
9410;DHT22;4744;52.576;13.568;2022-07-23T07:16:59;15.50;1.00
9410;DHT22;4744;52.576;13.568;2022-07-23T07:19:26;15.50;1.00
9410;DHT22;4744;52.576;13.568;2022-07-23T07:21:53;15.50;1.00
9410;DHT22;4744;52.576;13.568;2022-07-23T07:24:21;15.50;1.00
9410;DHT22;4744;52.576;13.568;2022-07-23T07:26:47;15.60;1.00
9410;DHT22;4744;52.576;13.568;2022-07-23T07:29:14;15.60;1.00
9410;DHT22;4744;52.576;13.568;2022-07-23T07:31:41;15.60;1.00
9410;DHT22;4744;52.576;13.568;2022-07-23T07:34:08;15.70;1.00
9410;DHT22;4744;52.576;13.568;2022-07-23T07:36:35;15.70;1.00
9410;DHT22;4744;52.576;13.568;2022-07-23T07:39:02;15.80;1.00
9410;DHT22;4744;52.576;13.568;2022-07-23T07:41:31;15.90;1.00
9410;DHT22;4744;52.576;13.568;2022-07-23T07:43:58;15.90;1.00
9410;DHT22;4744;52.576;13.568;2022-07-23T07:46:25;15.90;1.00
9410;DHT22;4744;52.576;13.568;2022-07-23T07:48:53;15.90;1.00
9410;DHT22;4744;52.576;13.568;2022-07-23T07:51:19;16.00;1.00
9410;DHT22;4744;52.576;13.568;2022-07-23T07:53:46;16.00;1.00
9410;DHT22;4744;52.576;13.568;2022-07-23T07:56:13;16.00;1.00
9410;DHT22;4744;52.576;13.568;2022-07-23T07:58:41;16.10;1.00
9410;DHT22;4744;52.576;13.568;2022-07-23T08:01:08;16.20;1.00
9410;DHT22;4744;52.576;13.568;2022-07-23T08:03:35;16.30;1.00
9410;DHT22;4744;52.576;13.568;2022-07-23T08:06:02;16.30;1.00
9410;DHT22;4744;52.576;13.568;2022-07-23T08:08:29;16.30;1.00
9410;DHT22;4744;52.576;13.568;2022-07-23T08:10:55;16.40;1.00
9410;DHT22;4744;52.576;13.568;2022-07-23T08:13:22;16.50;1.00
9410;DHT22;4744;52.576;13.568;2022-07-23T08:15:50;16.50;1.00
9410;DHT22;4744;52.576;13.568;2022-07-23T08:18:18;16.50;1.00
9410;DHT22;4744;52.576;13.568;2022-07-23T08:20:45;16.60;1.00
9410;DHT22;4744;52.576;13.568;2022-07-23T08:23:12;16.70;1.00
9410;DHT22;4744;52.576;13.568;2022-07-23T08:25:40;16.80;1.00
9410;DHT22;4744;52.576;13.568;2022-07-23T08:28:09;16.80;1.00
9410;DHT22;4744;52.576;13.568;2022-07-23T08:30:37;17.00;1.00
9410;DHT22;4744;52.576;13.568;2022-07-23T08:33:08;17.10;1.00
9410;DHT22;4744;52.576;13.568;2022-07-23T08:35:38;17.30;1.00
9410;DHT22;4744;52.576;13.568;2022-07-23T08:38:07;17.50;1.00
9410;DHT22;4744;52.576;13.568;2022-07-23T08:40:36;17.60;1.00
9410;DHT22;4744;52.576;13.568;2022-07-23T08:43:06;17.80;1.00
9410;DHT22;4744;52.576;13.568;2022-07-23T08:45:37;17.80;1.00
9410;DHT22;4744;52.576;13.568;2022-07-23T08:48:08;17.80;1.00
9410;DHT22;4744;52.576;13.568;2022-07-23T08:50:37;17.80;1.00
9410;DHT22;4744;52.576;13.568;2022-07-23T08:53:07;17.90;1.00
9410;DHT22;4744;52.576;13.568;2022-07-23T08:55:34;17.90;1.00
9410;DHT22;4744;52.576;13.568;2022-07-23T08:58:01;18.00;1.00
9410;DHT22;4744;52.576;13.568;2022-07-23T09:00:28;18.20;1.00
9410;DHT22;4744;52.576;13.568;2022-07-23T09:02:55;18.50;1.00
9410;DHT22;4744;52.576;13.568;2022-07-23T09:05:24;18.60;1.00
9410;DHT22;4744;52.576;13.568;2022-07-23T09:08:11;18.70;1.00
9410;DHT22;4744;52.576;13.568;2022-07-23T09:10:46;18.70;1.00
9410;DHT22;4744;52.576;13.568;2022-07-23T09:13:25;18.80;1.00
9410;DHT22;4744;52.576;13.568;2022-07-23T09:15:53;18.80;1.00
9410;DHT22;4744;52.576;13.568;2022-07-23T09:18:32;18.90;1.00
9410;DHT22;4744;52.576;13.568;2022-07-23T09:21:14;18.90;1.00
9410;DHT22;4744;52.576;13.568;2022-07-23T09:23:43;18.90;1.00
9410;DHT22;4744;52.576;13.568;2022-07-23T09:26:35;19.00;1.00
9410;DHT22;4744;52.576;13.568;2022-07-23T09:29:06;19.10;1.00
9410;DHT22;4744;52.576;13.568;2022-07-23T09:31:41;19.20;1.00
9410;DHT22;4744;52.576;13.568;2022-07-23T09:34:11;19.30;1.00
9410;DHT22;4744;52.576;13.568;2022-07-23T09:36:40;19.40;1.00
9410;DHT22;4744;52.576;13.568;2022-07-23T09:39:08;19.40;1.00
9410;DHT22;4744;52.576;13.568;2022-07-23T09:41:40;19.40;1.00
9410;DHT22;4744;52.576;13.568;2022-07-23T09:44:11;19.30;1.00
9410;DHT22;4744;52.576;13.568;2022-07-23T09:46:39;19.40;1.00
9410;DHT22;4744;52.576;13.568;2022-07-23T09:49:15;19.40;1.00
9410;DHT22;4744;52.576;13.568;2022-07-23T09:51:52;19.30;1.00
9410;DHT22;4744;52.576;13.568;2022-07-23T09:54:22;19.30;1.00
9410;DHT22;4744;52.576;13.568;2022-07-23T09:56:51;19.30;1.00
9410;DHT22;4744;52.576;13.568;2022-07-23T09:59:18;19.30;1.00
9410;DHT22;4744;52.576;13.568;2022-07-23T10:01:47;19.30;1.00
9410;DHT22;4744;52.576;13.568;2022-07-23T10:04:14;19.50;1.00
9410;DHT22;4744;52.576;13.568;2022-07-23T10:06:42;19.70;1.00
9410;DHT22;4744;52.576;13.568;2022-07-23T10:09:12;19.90;1.00
9410;DHT22;4744;52.576;13.568;2022-07-23T10:11:42;19.90;1.00
9410;DHT22;4744;52.576;13.568;2022-07-23T10:14:09;20.00;1.00
9410;DHT22;4744;52.576;13.568;2022-07-23T10:16:37;20.00;1.00
9410;DHT22;4744;52.576;13.568;2022-07-23T10:19:04;20.10;1.00
9410;DHT22;4744;52.576;13.568;2022-07-23T10:21:39;20.10;1.00
9410;DHT22;4744;52.576;13.568;2022-07-23T10:24:17;20.20;1.00
9410;DHT22;4744;52.576;13.568;2022-07-23T10:26:54;20.30;1.00
9410;DHT22;4744;52.576;13.568;2022-07-23T10:29:36;20.40;1.00
9410;DHT22;4744;52.576;13.568;2022-07-23T10:32:16;20.50;1.00
9410;DHT22;4744;52.576;13.568;2022-07-23T10:34:48;20.60;1.00
9410;DHT22;4744;52.576;13.568;2022-07-23T10:37:22;20.60;1.00
9410;DHT22;4744;52.576;13.568;2022-07-23T10:40:13;20.60;1.00
9410;DHT22;4744;52.576;13.568;2022-07-23T10:42:42;20.60;1.00
9410;DHT22;4744;52.576;13.568;2022-07-23T10:45:24;20.60;1.00
9410;DHT22;4744;52.576;13.568;2022-07-23T10:47:51;20.70;1.00
9410;DHT22;4744;52.576;13.568;2022-07-23T10:50:20;20.80;1.00
9410;DHT22;4744;52.576;13.568;2022-07-23T10:53:13;21.00;1.00
9410;DHT22;4744;52.576;13.568;2022-07-23T10:55:51;21.10;1.00
9410;DHT22;4744;52.576;13.568;2022-07-23T10:58:45;21.30;1.00
9410;DHT22;4744;52.576;13.568;2022-07-23T11:01:32;21.20;1.00
9410;DHT22;4744;52.576;13.568;2022-07-23T11:03:59;21.20;1.00
9410;DHT22;4744;52.576;13.568;2022-07-23T11:09:40;21.20;1.00
9410;DHT22;4744;52.576;13.568;2022-07-23T11:12:35;21.30;1.00
9410;DHT22;4744;52.576;13.568;2022-07-23T11:15:05;21.50;1.00
9410;DHT22;4744;52.576;13.568;2022-07-23T11:17:33;21.70;1.00
9410;DHT22;4744;52.576;13.568;2022-07-23T11:20:17;21.60;1.00
9410;DHT22;4744;52.576;13.568;2022-07-23T11:22:49;21.80;1.00
9410;DHT22;4744;52.576;13.568;2022-07-23T11:25:33;22.10;1.00
9410;DHT22;4744;52.576;13.568;2022-07-23T11:28:20;22.50;1.00
9410;DHT22;4744;52.576;13.568;2022-07-23T11:30:51;22.70;1.00
9410;DHT22;4744;52.576;13.568;2022-07-23T11:33:21;22.90;1.00
9410;DHT22;4744;52.576;13.568;2022-07-23T11:36:01;23.00;1.00
9410;DHT22;4744;52.576;13.568;2022-07-23T11:38:31;23.10;1.00
9410;DHT22;4744;52.576;13.568;2022-07-23T11:40:58;23.30;1.00
9410;DHT22;4744;52.576;13.568;2022-07-23T11:43:26;23.10;1.00
9410;DHT22;4744;52.576;13.568;2022-07-23T11:45:57;23.20;1.00
9410;DHT22;4744;52.576;13.568;2022-07-23T11:48:25;23.20;1.00
9410;DHT22;4744;52.576;13.568;2022-07-23T11:50:54;23.30;1.00
9410;DHT22;4744;52.576;13.568;2022-07-23T11:53:22;23.40;1.00
9410;DHT22;4744;52.576;13.568;2022-07-23T11:55:49;23.50;1.00
9410;DHT22;4744;52.576;13.568;2022-07-23T11:58:16;23.40;1.00
9410;DHT22;4744;52.576;13.568;2022-07-23T12:00:44;23.20;1.00
9410;DHT22;4744;52.576;13.568;2022-07-23T12:03:11;23.10;1.00
9410;DHT22;4744;52.576;13.568;2022-07-23T12:05:39;23.10;1.00
9410;DHT22;4744;52.576;13.568;2022-07-23T12:08:07;23.00;1.00
9410;DHT22;4744;52.576;13.568;2022-07-23T12:10:36;23.10;1.00
9410;DHT22;4744;52.576;13.568;2022-07-23T12:13:06;23.10;1.00
9410;DHT22;4744;52.576;13.568;2022-07-23T12:15:37;22.90;1.00
9410;DHT22;4744;52.576;13.568;2022-07-23T12:18:08;22.80;1.00
9410;DHT22;4744;52.576;13.568;2022-07-23T12:20:38;22.80;1.00
9410;DHT22;4744;52.576;13.568;2022-07-23T12:23:06;22.90;1.00
9410;DHT22;4744;52.576;13.568;2022-07-23T12:25:35;22.90;1.00
9410;DHT22;4744;52.576;13.568;2022-07-23T12:28:04;22.80;1.00
9410;DHT22;4744;52.576;13.568;2022-07-23T12:30:34;22.90;1.00
9410;DHT22;4744;52.576;13.568;2022-07-23T12:33:01;23.20;1.00
9410;DHT22;4744;52.576;13.568;2022-07-23T12:35:35;23.30;1.00
9410;DHT22;4744;52.576;13.568;2022-07-23T12:38:04;23.40;1.00
9410;DHT22;4744;52.576;13.568;2022-07-23T12:40:33;23.20;1.00
9410;DHT22;4744;52.576;13.568;2022-07-23T12:43:04;23.20;1.00
9410;DHT22;4744;52.576;13.568;2022-07-23T12:45:44;23.30;1.00
9410;DHT22;4744;52.576;13.568;2022-07-23T12:48:17;23.50;1.00
9410;DHT22;4744;52.576;13.568;2022-07-23T12:50:53;23.60;1.00
9410;DHT22;4744;52.576;13.568;2022-07-23T12:53:21;23.70;1.00
9410;DHT22;4744;52.576;13.568;2022-07-23T12:55:50;24.00;1.00
9410;DHT22;4744;52.576;13.568;2022-07-23T12:58:19;24.20;1.00
9410;DHT22;4744;52.576;13.568;2022-07-23T13:00:53;24.10;1.00
9410;DHT22;4744;52.576;13.568;2022-07-23T13:03:22;24.10;1.00
9410;DHT22;4744;52.576;13.568;2022-07-23T13:05:50;24.00;1.00
9410;DHT22;4744;52.576;13.568;2022-07-23T13:08:17;23.90;1.00
9410;DHT22;4744;52.576;13.568;2022-07-23T13:10:44;23.80;1.00
9410;DHT22;4744;52.576;13.568;2022-07-23T13:13:14;23.50;1.00
9410;DHT22;4744;52.576;13.568;2022-07-23T13:15:41;23.30;1.00
9410;DHT22;4744;52.576;13.568;2022-07-23T13:18:08;23.10;1.00
9410;DHT22;4744;52.576;13.568;2022-07-23T13:20:35;23.00;1.00
9410;DHT22;4744;52.576;13.568;2022-07-23T13:23:05;23.00;1.00
9410;DHT22;4744;52.576;13.568;2022-07-23T13:25:32;22.90;1.00
9410;DHT22;4744;52.576;13.568;2022-07-23T13:27:59;23.20;1.00
9410;DHT22;4744;52.576;13.568;2022-07-23T13:30:26;23.40;1.00
9410;DHT22;4744;52.576;13.568;2022-07-23T13:32:53;23.60;1.00
9410;DHT22;4744;52.576;13.568;2022-07-23T13:35:20;23.80;1.00
9410;DHT22;4744;52.576;13.568;2022-07-23T13:37:47;23.80;1.00
9410;DHT22;4744;52.576;13.568;2022-07-23T13:40:15;23.80;1.00
9410;DHT22;4744;52.576;13.568;2022-07-23T13:42:42;23.80;1.00
9410;DHT22;4744;52.576;13.568;2022-07-23T13:45:10;23.80;1.00
9410;DHT22;4744;52.576;13.568;2022-07-23T13:47:37;24.00;1.00
9410;DHT22;4744;52.576;13.568;2022-07-23T13:50:05;24.00;1.00
9410;DHT22;4744;52.576;13.568;2022-07-23T13:52:32;24.10;1.00
9410;DHT22;4744;52.576;13.568;2022-07-23T13:54:59;24.10;1.00
9410;DHT22;4744;52.576;13.568;2022-07-23T13:57:28;24.10;1.00
9410;DHT22;4744;52.576;13.568;2022-07-23T13:59:54;24.00;1.00
9410;DHT22;4744;52.576;13.568;2022-07-23T14:02:21;23.90;1.00
9410;DHT22;4744;52.576;13.568;2022-07-23T14:04:48;23.90;1.00
9410;DHT22;4744;52.576;13.568;2022-07-23T14:07:15;24.00;1.00
9410;DHT22;4744;52.576;13.568;2022-07-23T14:09:42;24.30;1.00
9410;DHT22;4744;52.576;13.568;2022-07-23T14:12:09;24.40;1.00
9410;DHT22;4744;52.576;13.568;2022-07-23T14:14:37;24.50;1.00
9410;DHT22;4744;52.576;13.568;2022-07-23T14:17:04;24.60;1.00
9410;DHT22;4744;52.576;13.568;2022-07-23T14:19:31;24.60;1.00
9410;DHT22;4744;52.576;13.568;2022-07-23T14:21:58;24.60;1.00
9410;DHT22;4744;52.576;13.568;2022-07-23T14:24:25;24.50;1.00
9410;DHT22;4744;52.576;13.568;2022-07-23T14:26:52;24.40;1.00
9410;DHT22;4744;52.576;13.568;2022-07-23T14:29:18;24.30;1.00
9410;DHT22;4744;52.576;13.568;2022-07-23T14:31:46;24.30;1.00
9410;DHT22;4744;52.576;13.568;2022-07-23T14:34:14;24.30;1.00
9410;DHT22;4744;52.576;13.568;2022-07-23T14:36:40;24.30;1.00
9410;DHT22;4744;52.576;13.568;2022-07-23T14:39:07;24.20;1.00
9410;DHT22;4744;52.576;13.568;2022-07-23T14:41:35;24.10;1.00
9410;DHT22;4744;52.576;13.568;2022-07-23T14:44:02;24.20;1.00
9410;DHT22;4744;52.576;13.568;2022-07-23T14:46:30;24.30;1.00
9410;DHT22;4744;52.576;13.568;2022-07-23T14:48:58;24.40;1.00
9410;DHT22;4744;52.576;13.568;2022-07-23T14:51:25;24.60;1.00
9410;DHT22;4744;52.576;13.568;2022-07-23T14:53:52;24.60;1.00
9410;DHT22;4744;52.576;13.568;2022-07-23T14:56:19;24.60;1.00
9410;DHT22;4744;52.576;13.568;2022-07-23T14:58:46;24.50;1.00
9410;DHT22;4744;52.576;13.568;2022-07-23T15:01:13;24.30;1.00
9410;DHT22;4744;52.576;13.568;2022-07-23T15:03:40;24.30;1.00
9410;DHT22;4744;52.576;13.568;2022-07-23T15:06:08;24.20;1.00
9410;DHT22;4744;52.576;13.568;2022-07-23T15:08:35;24.30;1.00
9410;DHT22;4744;52.576;13.568;2022-07-23T15:11:02;24.30;1.00
9410;DHT22;4744;52.576;13.568;2022-07-23T15:13:29;24.30;1.00
9410;DHT22;4744;52.576;13.568;2022-07-23T15:15:55;24.40;1.00
9410;DHT22;4744;52.576;13.568;2022-07-23T15:18:22;24.50;1.00
9410;DHT22;4744;52.576;13.568;2022-07-23T15:20:49;24.50;1.00
9410;DHT22;4744;52.576;13.568;2022-07-23T15:23:17;24.60;1.00
9410;DHT22;4744;52.576;13.568;2022-07-23T15:25:44;24.60;1.00
9410;DHT22;4744;52.576;13.568;2022-07-23T15:28:11;24.60;1.00
9410;DHT22;4744;52.576;13.568;2022-07-23T15:30:38;24.70;1.00
9410;DHT22;4744;52.576;13.568;2022-07-23T15:33:05;24.70;1.00
9410;DHT22;4744;52.576;13.568;2022-07-23T15:35:32;24.80;1.00
9410;DHT22;4744;52.576;13.568;2022-07-23T15:37:59;24.90;1.00
9410;DHT22;4744;52.576;13.568;2022-07-23T15:40:27;24.70;1.00
9410;DHT22;4744;52.576;13.568;2022-07-23T15:42:54;24.60;1.00
9410;DHT22;4744;52.576;13.568;2022-07-23T15:45:21;24.50;1.00
9410;DHT22;4744;52.576;13.568;2022-07-23T15:47:48;24.40;1.00
9410;DHT22;4744;52.576;13.568;2022-07-23T15:50:15;24.40;1.00
9410;DHT22;4744;52.576;13.568;2022-07-23T15:52:42;24.40;1.00
9410;DHT22;4744;52.576;13.568;2022-07-23T15:55:09;24.40;1.00
9410;DHT22;4744;52.576;13.568;2022-07-23T15:57:37;24.30;1.00
9410;DHT22;4744;52.576;13.568;2022-07-23T16:00:06;24.30;1.00
9410;DHT22;4744;52.576;13.568;2022-07-23T16:02:33;24.30;1.00
9410;DHT22;4744;52.576;13.568;2022-07-23T16:05:00;24.30;1.00
9410;DHT22;4744;52.576;13.568;2022-07-23T16:07:27;24.30;1.00
9410;DHT22;4744;52.576;13.568;2022-07-23T16:09:54;24.10;1.00
9410;DHT22;4744;52.576;13.568;2022-07-23T16:12:20;23.80;1.00